Time;durP1;ratioP1;P1;durP2;ratioP2;P2;SDS_P1;SDS_P2;PMS_P1;PMS_P2;Temp;Humidity;BMP_temperature;BMP_pressure;BME280_temperature;BME280_humidity;BME280_pressure;Samples;Min_cycle;Max_cycle;Signal;HPM_P1;HPM_P2
2021/05/20 00:00:22;;;;;;;4.45;0.68;;;14.60;59.40;;;;;;6298363;28;20092;-84
2021/05/20 00:03:24;;;;;;;1.98;1.15;;;14.60;59.30;;;;;;6299417;28;20044;-85
2021/05/20 00:06:27;;;;;;;2.05;1.20;;;14.60;59.10;;;;;;6285361;28;20043;-86
2021/05/20 00:09:30;;;;;;;1.13;0.40;;;14.60;59.10;;;;;;6282633;28;20032;-84
2021/05/20 00:12:31;;;;;;;0.68;0.40;;;14.50;59.00;;;;;;6300854;28;20497;-85
2021/05/20 00:15:35;;;;;;;0.52;0.40;;;14.50;59.10;;;;;;6301170;28;20033;-85
2021/05/20 00:18:36;;;;;;;4.70;0.80;;;14.50;59.10;;;;;;6307427;28;20150;-84
2021/05/20 00:21:38;;;;;;;0.40;0.40;;;14.40;59.40;;;;;;6272748;28;20141;-84
2021/05/20 00:24:40;;;;;;;2.08;0.63;;;14.40;59.60;;;;;;6281455;28;20039;-84
2021/05/20 00:27:41;;;;;;;3.15;0.85;;;14.30;59.70;;;;;;6300247;28;20041;-83
2021/05/20 00:30:42;;;;;;;0.40;0.40;;;14.30;59.90;;;;;;6280772;28;20410;-84
2021/05/20 00:33:45;;;;;;;1.30;0.60;;;14.30;59.90;;;;;;6265728;28;20119;-85
2021/05/20 00:36:46;;;;;;;0.85;0.55;;;14.30;60.10;;;;;;6303372;28;20041;-83
2021/05/20 00:39:47;;;;;;;0.77;0.50;;;14.30;60.10;;;;;;6285863;28;20041;-84
2021/05/20 00:42:52;;;;;;;0.47;0.47;;;14.30;60.10;;;;;;6298241;28;20048;-84
2021/05/20 00:45:54;;;;;;;0.75;0.40;;;14.30;60.30;;;;;;6292623;28;20048;-84
2021/05/20 00:48:55;;;;;;;0.50;0.50;;;14.20;60.50;;;;;;6259461;28;20032;-84
2021/05/20 00:51:57;;;;;;;3.42;0.50;;;14.20;60.70;;;;;;6280613;28;20076;-84
2021/05/20 00:55:00;;;;;;;1.15;0.50;;;14.20;60.90;;;;;;6280488;28;20048;-85
2021/05/20 00:58:02;;;;;;;0.93;0.70;;;14.20;61.20;;;;;;6281397;28;20086;-84
2021/05/20 01:01:03;;;;;;;1.27;0.55;;;14.10;61.30;;;;;;6302711;28;20388;-83
2021/05/20 01:04:05;;;;;;;0.70;0.60;;;14.10;60.60;;;;;;6268987;28;20028;-83
2021/05/20 01:07:06;;;;;;;0.65;0.50;;;14.00;61.40;;;;;;6278307;28;20461;-83
2021/05/20 01:10:08;;;;;;;1.55;0.75;;;14.00;61.40;;;;;;6285457;28;20097;-83
2021/05/20 01:13:09;;;;;;;0.63;0.60;;;14.00;61.50;;;;;;6285490;28;20089;-84
2021/05/20 01:16:12;;;;;;;0.63;0.47;;;14.00;61.50;;;;;;6278255;28;20361;-83
2021/05/20 01:19:14;;;;;;;1.10;0.50;;;14.00;61.60;;;;;;6280352;28;20086;-84
2021/05/20 01:22:15;;;;;;;5.95;0.70;;;14.00;61.70;;;;;;6283393;28;20490;-84
2021/05/20 01:25:18;;;;;;;0.90;0.60;;;13.90;61.70;;;;;;6285143;28;20033;-84
2021/05/20 01:28:21;;;;;;;3.08;0.68;;;13.90;61.70;;;;;;6279935;28;20029;-85
2021/05/20 01:31:24;;;;;;;3.22;0.70;;;13.90;62.00;;;;;;6277164;28;20067;-85
2021/05/20 01:34:25;;;;;;;0.60;0.55;;;13.90;62.20;;;;;;6285384;28;20037;-84
2021/05/20 01:37:27;;;;;;;2.13;0.60;;;13.80;62.30;;;;;;6259152;28;20095;-85
2021/05/20 01:40:28;;;;;;;0.82;0.80;;;13.80;62.70;;;;;;6271730;28;20044;-84
2021/05/20 01:43:30;;;;;;;1.20;0.70;;;13.80;62.90;;;;;;6277001;28;20033;-84
2021/05/20 01:46:31;;;;;;;1.00;0.57;;;13.70;63.10;;;;;;6252444;28;20056;-85
2021/05/20 01:49:32;;;;;;;1.13;0.50;;;13.60;63.50;;;;;;6273318;28;20033;-84
2021/05/20 01:52:33;;;;;;;0.60;0.43;;;13.60;63.60;;;;;;6254170;28;20072;-84
2021/05/20 01:55:36;;;;;;;4.78;0.55;;;13.50;63.50;;;;;;6273426;28;20033;-84
2021/05/20 01:58:38;;;;;;;1.20;0.40;;;13.50;63.60;;;;;;6278582;28;20029;-84
2021/05/20 02:01:40;;;;;;;0.35;0.30;;;13.40;63.50;;;;;;6277675;28;20381;-85
2021/05/20 02:04:41;;;;;;;1.23;0.60;;;13.30;63.70;;;;;;6292816;28;20036;-84
2021/05/20 02:07:43;;;;;;;0.45;0.45;;;13.20;63.80;;;;;;6284678;28;20072;-84
2021/05/20 02:10:44;;;;;;;1.25;1.08;;;13.20;64.10;;;;;;6253968;28;20091;-84
2021/05/20 02:13:45;;;;;;;2.65;0.63;;;13.10;64.20;;;;;;6252810;28;20097;-84
2021/05/20 02:16:46;;;;;;;0.93;0.35;;;13.00;64.30;;;;;;6253165;28;20084;-84
2021/05/20 02:19:47;;;;;;;6.78;0.47;;;13.00;64.40;;;;;;6255133;28;20029;-84
2021/05/20 02:22:49;;;;;;;6.38;0.80;;;13.00;64.50;;;;;;6267956;28;20038;-84
2021/05/20 02:25:51;;;;;;;1.17;0.50;;;13.00;64.60;;;;;;6274981;28;20051;-84
2021/05/20 02:28:53;;;;;;;5.68;0.82;;;13.00;64.70;;;;;;6275387;28;20098;-84
2021/05/20 02:31:54;;;;;;;6.22;0.60;;;13.00;64.50;;;;;;6276148;28;20347;-85
2021/05/20 02:34:55;;;;;;;3.15;0.55;;;13.00;64.50;;;;;;6275778;28;20095;-85
2021/05/20 02:37:57;;;;;;;0.93;0.40;;;13.00;65.30;;;;;;6276410;28;20033;-83
2021/05/20 02:40:58;;;;;;;0.50;0.50;;;13.00;64.50;;;;;;6271337;28;20459;-83
2021/05/20 02:43:59;;;;;;;0.60;0.50;;;13.00;64.60;;;;;;6234652;28;20358;-83
2021/05/20 02:47:02;;;;;;;1.48;0.82;;;13.00;64.60;;;;;;6249636;28;20072;-84
2021/05/20 02:50:04;;;;;;;3.97;0.60;;;13.00;64.70;;;;;;6252012;28;20048;-84
2021/05/20 02:53:06;;;;;;;1.05;0.68;;;12.90;64.90;;;;;;6237698;28;20064;-84
2021/05/20 02:56:07;;;;;;;1.58;0.73;;;12.90;65.00;;;;;;6251057;28;20040;-84
2021/05/20 02:59:09;;;;;;;2.25;0.75;;;12.90;64.90;;;;;;6259633;28;20025;-84
2021/05/20 03:02:10;;;;;;;0.43;0.40;;;12.90;64.90;;;;;;6258365;28;20040;-84
2021/05/20 03:05:12;;;;;;;0.60;0.60;;;12.80;64.80;;;;;;6260554;28;20140;-83
2021/05/20 03:08:15;;;;;;;1.42;1.00;;;12.80;65.00;;;;;;6277062;28;20462;-83
2021/05/20 03:11:16;;;;;;;1.33;0.75;;;12.80;65.10;;;;;;6263846;28;20033;-83
2021/05/20 03:14:17;;;;;;;14.05;0.70;;;12.70;65.10;;;;;;6251821;28;20041;-83
2021/05/20 03:17:20;;;;;;;0.70;0.70;;;12.60;65.20;;;;;;6257471;28;20452;-83
2021/05/20 03:20:22;;;;;;;1.05;0.95;;;12.60;65.30;;;;;;6277407;28;20112;-83
2021/05/20 03:23:23;;;;;;;3.17;0.77;;;12.60;65.40;;;;;;6274314;28;20096;-84
2021/05/20 03:26:24;;;;;;;1.15;0.50;;;12.50;65.40;;;;;;6274669;28;20056;-83
2021/05/20 03:29:25;;;;;;;3.38;0.80;;;12.60;65.60;;;;;;6293329;28;20048;-84
2021/05/20 03:32:27;;;;;;;1.27;0.70;;;12.60;65.50;;;;;;6304086;28;20486;-85
2021/05/20 03:35:28;;;;;;;3.13;0.88;;;12.60;65.50;;;;;;6282789;28;20041;-83
2021/05/20 03:38:29;;;;;;;1.40;1.00;;;12.70;65.40;;;;;;6265858;28;20036;-84
2021/05/20 03:41:30;;;;;;;3.22;1.00;;;12.70;65.30;;;;;;6282791;28;20493;-84
2021/05/20 03:44:32;;;;;;;2.03;1.17;;;12.80;65.10;;;;;;6298717;28;20033;-84
2021/05/20 03:47:33;;;;;;;4.30;1.45;;;12.80;65.00;;;;;;6292096;28;20051;-84
2021/05/20 03:50:34;;;;;;;2.05;1.10;;;12.80;64.90;;;;;;6283190;28;20032;-84
2021/05/20 03:53:36;;;;;;;4.65;0.90;;;12.90;64.90;;;;;;6283289;28;20047;-84
2021/05/20 03:56:38;;;;;;;1.50;0.70;;;12.90;64.70;;;;;;6300229;28;20037;-84
2021/05/20 03:59:39;;;;;;;0.57;0.57;;;12.90;64.60;;;;;;6289217;28;20050;-83
2021/05/20 04:02:40;;;;;;;0.75;0.63;;;12.90;64.20;;;;;;6289421;28;20098;-84
2021/05/20 04:05:41;;;;;;;4.00;0.70;;;12.80;64.00;;;;;;6258106;28;20044;-84
2021/05/20 04:08:49;;;;;;;6.15;1.10;;;12.70;64.10;;;;;;6277123;28;20028;-84
2021/05/20 04:11:50;;;;;;;;;;;12.60;64.30;;;;;;6276522;28;20503;-84
2021/05/20 04:14:51;;;;;;;1.38;0.70;;;12.60;64.60;;;;;;6271790;28;19912;-84
2021/05/20 04:17:52;;;;;;;0.57;0.50;;;12.50;64.60;;;;;;6280611;28;20114;-84
2021/05/20 04:20:54;;;;;;;1.65;0.70;;;12.50;64.70;;;;;;6257364;28;20411;-84
2021/05/20 04:23:55;;;;;;;2.42;0.88;;;12.50;64.80;;;;;;6282137;28;20032;-84
2021/05/20 04:26:56;;;;;;;0.80;0.80;;;12.40;64.80;;;;;;6296999;28;20044;-84
2021/05/20 04:29:58;;;;;;;0.43;0.38;;;12.40;64.90;;;;;;6280881;28;20228;-84
2021/05/20 04:32:59;;;;;;;1.30;0.80;;;12.40;65.10;;;;;;6297727;28;20079;-84
2021/05/20 04:36:00;;;;;;;2.25;1.00;;;12.40;65.20;;;;;;6303320;28;20385;-84
2021/05/20 04:39:01;;;;;;;2.08;1.00;;;12.40;65.20;;;;;;6303185;28;20110;-83
2021/05/20 04:42:03;;;;;;;1.50;0.80;;;12.40;65.30;;;;;;6303406;28;20094;-84
2021/05/20 04:45:05;;;;;;;1.65;0.70;;;12.50;65.50;;;;;;6302644;28;20086;-85
2021/05/20 04:48:06;;;;;;;1.35;0.77;;;12.60;65.50;;;;;;6294746;28;20068;-84
2021/05/20 04:51:07;;;;;;;1.90;1.17;;;12.60;65.50;;;;;;6269224;28;20044;-84
2021/05/20 04:54:09;;;;;;;1.73;1.30;;;12.60;65.30;;;;;;6279375;28;20130;-84
2021/05/20 04:57:10;;;;;;;1.45;1.02;;;12.70;65.20;;;;;;6276820;28;20036;-84
2021/05/20 05:00:12;;;;;;;2.83;1.63;;;12.80;65.10;;;;;;6276994;28;20373;-84
2021/05/20 05:03:14;;;;;;;1.50;1.40;;;12.80;65.00;;;;;;6287179;28;20040;-84
2021/05/20 05:06:15;;;;;;;3.53;1.30;;;12.90;64.90;;;;;;6260708;28;20045;-83
2021/05/20 05:09:16;;;;;;;4.43;1.08;;;12.90;64.80;;;;;;6278788;28;20036;-84
2021/05/20 05:12:17;;;;;;;1.60;1.08;;;12.90;64.70;;;;;;6251802;28;20445;-84
2021/05/20 05:15:19;;;;;;;1.02;0.95;;;13.00;64.60;;;;;;6262042;28;20511;-84
2021/05/20 05:18:20;;;;;;;4.30;1.35;;;13.00;64.50;;;;;;6281755;28;20033;-84
2021/05/20 05:21:21;;;;;;;2.03;1.33;;;13.00;64.60;;;;;;6290146;28;20029;-84
2021/05/20 05:24:22;;;;;;;5.75;1.10;;;13.00;64.60;;;;;;6289703;28;20047;-86
2021/05/20 05:27:25;;;;;;;1.83;1.20;;;13.10;64.50;;;;;;6303079;28;20044;-84
2021/05/20 05:30:26;;;;;;;3.05;1.45;;;13.20;64.30;;;;;;6305094;28;20058;-84
2021/05/20 05:33:28;;;;;;;4.18;1.75;;;13.20;63.80;;;;;;6262936;28;20098;-85
2021/05/20 05:36:30;;;;;;;4.03;1.55;;;13.30;63.60;;;;;;6304409;28;20070;-84
2021/05/20 05:39:31;;;;;;;6.53;2.15;;;13.40;63.50;;;;;;6292274;28;20029;-84
2021/05/20 05:42:33;;;;;;;3.00;1.60;;;13.40;63.20;;;;;;6262346;28;20135;-84
2021/05/20 05:45:34;;;;;;;3.28;1.90;;;13.40;63.20;;;;;;6298037;28;20033;-84
2021/05/20 05:48:35;;;;;;;3.05;1.88;;;13.50;63.20;;;;;;6281273;28;20529;-84
2021/05/20 05:51:38;;;;;;;4.72;2.47;;;13.50;62.90;;;;;;6294811;28;20033;-84
2021/05/20 05:54:39;;;;;;;6.30;1.65;;;13.50;62.80;;;;;;6291571;28;20029;-84
2021/05/20 05:57:40;;;;;;;4.13;2.13;;;13.50;62.70;;;;;;6301231;28;20033;-84
2021/05/20 06:00:41;;;;;;;4.25;2.40;;;13.60;62.60;;;;;;6283808;28;20055;-84
2021/05/20 06:03:46;;;;;;;4.10;2.45;;;13.60;62.40;;;;;;6283763;28;20047;-86
2021/05/20 06:06:47;;;;;;;3.90;2.30;;;13.60;62.30;;;;;;6295484;28;20032;-84
2021/05/20 06:09:48;;;;;;;5.30;2.42;;;13.60;62.30;;;;;;6280157;28;20048;-84
2021/05/20 06:12:50;;;;;;;4.78;2.30;;;13.70;62.00;;;;;;6300670;28;20042;-84
2021/05/20 06:15:51;;;;;;;3.95;2.22;;;13.70;61.80;;;;;;6267819;28;20048;-85
2021/05/20 06:18:52;;;;;;;3.90;2.45;;;13.70;61.50;;;;;;6278205;28;20112;-84
2021/05/20 06:21:55;;;;;;;3.67;2.13;;;13.70;61.50;;;;;;6283428;28;20346;-84
2021/05/20 06:24:59;;;;;;;4.13;2.30;;;13.80;61.70;;;;;;6301001;28;20121;-84
2021/05/20 06:28:06;;;;;;;3.38;1.73;;;13.90;61.50;;;;;;6303604;28;20481;-84
2021/05/20 06:31:07;;;;;;;5.15;2.13;;;13.90;61.10;;;;;;6292265;28;20495;-84
2021/05/20 06:34:08;;;;;;;4.97;2.90;;;13.90;60.80;;;;;;6277676;28;20106;-84
2021/05/20 06:37:11;;;;;;;24.13;3.53;;;14.00;60.90;;;;;;6256432;28;20033;-84
2021/05/20 06:40:15;;;;;;;6.43;2.25;;;14.10;60.80;;;;;;6275797;28;20044;-84
2021/05/20 06:43:17;;;;;;;4.32;2.00;;;14.20;60.80;;;;;;6268519;28;20082;-85
2021/05/20 06:46:18;;;;;;;12.23;3.42;;;14.30;60.40;;;;;;6275776;28;20033;-84
2021/05/20 06:49:20;;;;;;;13.80;3.55;;;14.40;60.00;;;;;;6252242;28;20431;-85
2021/05/20 06:52:27;;;;;;;4.60;2.60;;;14.50;59.80;;;;;;6274057;28;20025;-83
2021/05/20 06:55:30;;;;;;;6.22;3.72;;;14.60;59.70;;;;;;6276108;28;20041;-84
2021/05/20 07:01:53;;;;;;;7.82;2.92;;;15.00;58.90;;;;;;6276162;28;20366;-84
2021/05/20 07:04:56;;;;;;;5.78;2.20;;;15.10;58.50;;;;;;6274769;28;20091;-84
2021/05/20 07:07:58;;;;;;;4.55;2.08;;;15.30;58.20;;;;;;6276567;28;20041;-85
2021/05/20 07:11:01;;;;;;;3.72;2.22;;;15.50;57.70;;;;;;6290364;28;20086;-84
2021/05/20 07:14:03;;;;;;;4.50;2.70;;;15.50;57.50;;;;;;6258454;28;20040;-84
2021/05/20 07:17:04;;;;;;;4.75;2.60;;;15.60;57.40;;;;;;6273132;28;20449;-84
2021/05/20 07:20:07;;;;;;;7.32;2.13;;;15.60;57.30;;;;;;6277193;28;20032;-84
2021/05/20 07:23:10;;;;;;;4.88;2.30;;;15.60;57.00;;;;;;6274118;28;20055;-85
2021/05/20 07:26:11;;;;;;;4.50;2.03;;;15.80;57.00;;;;;;6266207;28;20069;-84
2021/05/20 07:29:12;;;;;;;4.97;2.30;;;15.90;56.90;;;;;;6258118;28;20442;-85
2021/05/20 07:32:18;;;;;;;6.20;2.33;;;16.00;56.50;;;;;;6300849;28;20048;-84
2021/05/20 07:35:22;;;;;;;3.70;2.20;;;16.10;56.80;;;;;;6298646;28;20037;-85
2021/05/20 07:38:23;;;;;;;3.70;1.90;;;16.20;56.00;;;;;;6300542;28;20083;-85
2021/05/20 07:41:27;;;;;;;6.32;2.10;;;16.20;55.70;;;;;;6296446;28;20040;-84
2021/05/20 07:44:29;;;;;;;2.85;1.77;;;16.20;55.70;;;;;;6281003;28;20043;-84
2021/05/20 07:47:30;;;;;;;27.38;3.47;;;16.40;55.20;;;;;;6282025;28;20096;-84
2021/05/20 07:50:31;;;;;;;8.35;2.10;;;16.50;55.10;;;;;;6288374;28;20037;-84
2021/05/20 07:53:33;;;;;;;7.00;2.10;;;16.60;54.90;;;;;;6265183;28;20070;-84
2021/05/20 07:56:35;;;;;;;2.97;1.70;;;16.70;55.20;;;;;;6281971;28;20559;-84
2021/05/20 07:59:36;;;;;;;3.83;1.35;;;16.90;54.60;;;;;;6290940;28;20037;-86
2021/05/20 08:05:52;;;;;;;2.75;1.63;;;17.10;53.80;;;;;;6297368;28;20533;-84
2021/05/20 08:08:58;;;;;;;3.80;1.60;;;17.10;53.40;;;;;;6284953;28;20447;-83
2021/05/20 08:12:00;;;;;;;5.13;1.90;;;17.30;53.70;;;;;;6296449;28;20067;-85
2021/05/20 08:15:01;;;;;;;4.63;1.15;;;17.40;52.80;;;;;;6277999;28;20032;-85
2021/05/20 08:18:05;;;;;;;2.88;1.75;;;17.40;52.50;;;;;;6280568;28;20021;-85
2021/05/20 08:21:07;;;;;;;7.68;1.95;;;17.50;52.50;;;;;;6278152;28;20033;-84
2021/05/20 08:24:08;;;;;;;4.93;1.95;;;17.80;52.40;;;;;;6268252;28;20061;-84
2021/05/20 08:27:11;;;;;;;2.35;1.17;;;17.90;51.80;;;;;;6278432;28;20114;-84
2021/05/20 08:30:13;;;;;;;1.40;1.10;;;18.10;51.40;;;;;;6278789;28;20214;-85
2021/05/20 08:33:14;;;;;;;1.05;0.93;;;18.30;50.50;;;;;;6220217;28;20108;-86
2021/05/20 08:36:15;;;;;;;1.30;1.00;;;18.30;50.20;;;;;;6265460;28;20032;-84
2021/05/20 08:39:16;;;;;;;2.13;1.20;;;18.40;49.30;;;;;;6272085;28;20037;-84
2021/05/20 08:42:18;;;;;;;2.22;1.20;;;18.40;49.20;;;;;;6272600;28;20100;-84
2021/05/20 08:45:27;;;;;;;5.13;0.90;;;18.50;49.10;;;;;;6293164;28;20040;-83
2021/05/20 08:48:28;;;;;;;4.22;1.17;;;18.50;48.20;;;;;;6256391;28;20089;-84
2021/05/20 08:51:32;;;;;;;0.85;0.80;;;18.60;48.00;;;;;;6259932;28;20029;-85
2021/05/20 08:54:33;;;;;;;3.20;0.75;;;18.60;48.10;;;;;;6248120;28;20087;-84
2021/05/20 08:57:34;;;;;;;1.30;0.75;;;18.70;47.80;;;;;;6280750;28;20029;-84
2021/05/20 09:00:37;;;;;;;0.98;0.70;;;18.80;47.30;;;;;;6275269;28;20136;-85
2021/05/20 09:03:56;;;;;;;0.80;0.80;;;18.80;47.30;;;;;;6313376;28;20031;-84
2021/05/20 09:07:05;;;;;;;1.50;0.80;;;19.00;47.10;;;;;;6287683;28;20054;-85
2021/05/20 09:10:08;;;;;;;2.28;0.80;;;19.10;46.90;;;;;;6294654;28;20048;-86
2021/05/20 09:13:18;;;;;;;2.70;0.75;;;19.10;46.70;;;;;;6276761;28;20067;-86
2021/05/20 09:16:21;;;;;;;1.63;0.95;;;19.20;46.50;;;;;;6281677;28;20033;-84
2021/05/20 09:19:22;;;;;;;1.63;0.70;;;19.30;46.30;;;;;;6292830;28;20056;-84
2021/05/20 09:22:25;;;;;;;1.05;0.80;;;19.30;46.10;;;;;;6284665;28;20040;-84
2021/05/20 09:25:31;;;;;;;0.85;0.50;;;19.30;46.10;;;;;;6293776;28;20041;-85
2021/05/20 09:28:43;;;;;;;1.83;0.65;;;19.40;46.10;;;;;;6234083;28;20071;-85
2021/05/20 09:31:47;;;;;;;1.63;0.55;;;19.40;45.80;;;;;;6254256;28;20049;-84
2021/05/20 09:34:48;;;;;;;1.48;0.70;;;19.50;45.50;;;;;;6275404;28;20334;-85
2021/05/20 09:38:04;;;;;;;1.40;0.90;;;19.70;45.40;;;;;;6284045;28;20033;-85
2021/05/20 09:41:06;;;;;;;1.73;0.60;;;19.70;45.00;;;;;;6284517;28;20039;-84
2021/05/20 09:44:29;;;;;;;2.70;0.63;;;19.70;44.80;;;;;;6277150;28;20195;-85
2021/05/20 09:47:30;;;;;;;0.90;0.50;;;19.70;44.50;;;;;;6276872;28;20405;-85
2021/05/20 09:50:39;;;;;;;5.13;0.65;;;19.80;43.90;;;;;;6295612;28;20029;-85
2021/05/20 09:53:46;;;;;;;1.00;0.52;;;19.80;43.30;;;;;;6278388;28;20063;-84
2021/05/20 09:56:47;;;;;;;2.63;1.40;;;19.90;43.60;;;;;;6273329;28;20037;-85
2021/05/20 10:00:04;;;;;;;0.32;0.30;;;19.90;43.40;;;;;;6290167;28;20082;-85
2021/05/20 10:03:26;;;;;;;1.30;0.60;;;20.00;42.60;;;;;;6244097;28;20446;-85
2021/05/20 10:06:45;;;;;;;2.90;0.93;;;20.10;42.40;;;;;;6226810;28;20096;-85
2021/05/20 10:09:48;;;;;;;3.80;0.90;;;20.10;41.90;;;;;;6202152;28;20033;-85
2021/05/20 10:12:49;;;;;;;3.45;0.80;;;20.20;41.90;;;;;;6204098;28;20033;-83
2021/05/20 10:15:52;;;;;;;1.48;0.70;;;20.30;41.80;;;;;;6216983;28;20029;-85
2021/05/20 10:18:55;;;;;;;1.70;0.80;;;20.50;41.10;;;;;;6232998;28;20029;-85
2021/05/20 10:21:57;;;;;;;6.82;1.90;;;20.50;41.00;;;;;;6226480;28;20104;-85
2021/05/20 10:24:58;;;;;;;15.48;8.00;;;20.60;41.10;;;;;;6227044;28;20450;-85
2021/05/20 10:28:00;;;;;;;12.48;5.43;;;20.80;40.60;;;;;;6243084;28;20037;-85
2021/05/20 10:31:03;;;;;;;3.22;1.60;;;20.80;40.30;;;;;;6222312;28;20038;-84
2021/05/20 10:34:04;;;;;;;3.97;0.82;;;20.90;40.10;;;;;;6243198;28;20033;-85
2021/05/20 10:37:06;;;;;;;1.75;0.85;;;21.10;40.20;;;;;;6272276;28;20384;-85
2021/05/20 10:40:24;;;;;;;1.73;0.65;;;21.20;40.00;;;;;;6253950;28;20476;-84
2021/05/20 10:43:29;;;;;;;1.77;0.40;;;21.40;39.70;;;;;;6286431;28;20450;-86
2021/05/20 10:46:30;;;;;;;1.20;0.60;;;21.40;39.20;;;;;;6267475;28;20116;-84
2021/05/20 10:50:01;;;;;;;1.95;0.40;;;21.40;38.90;;;;;;6255635;28;20045;-85
2021/05/20 10:53:02;;;;;;;2.40;0.60;;;21.40;39.00;;;;;;6195230;28;20045;-85
2021/05/20 10:56:08;;;;;;;0.82;0.50;;;21.40;38.60;;;;;;6198860;28;20103;-85
2021/05/20 10:59:30;;;;;;;2.33;1.27;;;22.00;37.20;;;;;;6196611;28;20159;-83
2021/05/20 11:03:13;;;;;;;1.75;0.63;;;23.10;35.50;;;;;;6155236;28;20023;-84
2021/05/20 11:06:16;;;;;;;1.50;0.60;;;24.50;33.30;;;;;;6029945;28;20060;-85
2021/05/20 11:09:17;;;;;;;4.07;1.52;;;25.50;32.00;;;;;;6111362;29;20119;-86
2021/05/20 11:12:59;;;;;;;3.13;1.52;;;26.50;31.20;;;;;;6088445;28;20039;-87
2021/05/20 11:16:28;;;;;;;1.63;0.90;;;27.30;29.40;;;;;;6054450;28;20039;-87
2021/05/20 11:19:29;;;;;;;0.95;0.70;;;28.10;28.90;;;;;;6099282;28;20110;-84
2021/05/20 11:22:37;;;;;;;1.60;0.68;;;28.70;28.30;;;;;;6097996;28;20082;-85
2021/05/20 11:26:20;;;;;;;1.85;0.60;;;29.10;27.60;;;;;;6031876;28;20374;-84
2021/05/20 11:29:28;;;;;;;0.38;0.38;;;29.60;27.30;;;;;;6076900;28;20027;-84
2021/05/20 11:32:34;;;;;;;2.55;0.80;;;30.20;26.80;;;;;;6254331;28;20048;-84
2021/05/20 11:35:43;;;;;;;1.05;0.40;;;30.60;26.50;;;;;;6229910;28;20029;-83
2021/05/20 11:39:07;;;;;;;1.13;0.40;;;30.90;25.20;;;;;;6253570;28;20492;-84
2021/05/20 11:42:22;;;;;;;1.75;0.50;;;31.10;25.20;;;;;;6259330;28;20051;-83
2021/05/20 11:45:33;;;;;;;8.48;2.08;;;31.20;25.30;;;;;;6278349;28;20035;-84
2021/05/20 11:48:34;;;;;;;1.13;0.70;;;31.20;24.80;;;;;;6289463;28;20075;-83
2021/05/20 11:51:41;;;;;;;1.45;0.40;;;31.20;24.70;;;;;;6257942;28;20040;-83
2021/05/20 11:54:49;;;;;;;0.52;0.40;;;31.00;24.40;;;;;;6272916;28;20098;-83
2021/05/20 11:58:03;;;;;;;0.45;0.40;;;30.80;24.40;;;;;;6273409;28;20053;-83
2021/05/20 12:01:04;;;;;;;1.85;0.50;;;30.70;24.30;;;;;;6289272;28;20923;-84
2021/05/20 12:04:06;;;;;;;2.15;0.60;;;30.50;24.20;;;;;;6279665;28;20033;-83
2021/05/20 12:07:17;;;;;;;0.60;0.40;;;30.40;24.20;;;;;;6247240;28;20331;-83
2021/05/20 12:10:21;;;;;;;7.15;0.45;;;30.50;24.20;;;;;;6249428;28;20370;-85
2021/05/20 12:13:22;;;;;;;0.70;0.70;;;30.60;23.70;;;;;;6250228;28;20070;-83
2021/05/20 12:16:35;;;;;;;0.50;0.30;;;30.60;23.80;;;;;;6276416;28;20131;-82
2021/05/20 12:19:45;;;;;;;0.50;0.40;;;30.80;23.70;;;;;;6293875;28;20094;-83
2021/05/20 12:22:49;;;;;;;0.65;0.50;;;31.10;23.60;;;;;;6260290;28;20051;-84
2021/05/20 12:25:51;;;;;;;4.05;1.02;;;31.40;23.30;;;;;;6261689;28;20041;-83
2021/05/20 12:28:54;;;;;;;0.65;0.50;;;31.60;23.20;;;;;;6253901;28;20354;-83
2021/05/20 12:31:55;;;;;;;1.92;0.73;;;31.60;23.10;;;;;;6279604;28;20057;-83
2021/05/20 12:35:08;;;;;;;0.47;0.47;;;31.50;22.80;;;;;;6269247;28;20039;-84
2021/05/20 12:38:18;;;;;;;1.17;0.32;;;31.30;22.70;;;;;;6275965;28;20028;-84
2021/05/20 12:41:19;;;;;;;1.10;0.50;;;31.40;22.60;;;;;;6289321;28;20112;-84
2021/05/20 12:44:20;;;;;;;0.63;0.40;;;31.60;22.90;;;;;;6276764;28;20058;-83
2021/05/20 12:47:21;;;;;;;0.40;0.40;;;31.70;22.30;;;;;;6293660;28;20101;-82
2021/05/20 12:50:35;;;;;;;1.58;0.50;;;32.10;22.00;;;;;;6286025;28;20067;-83
2021/05/20 12:53:41;;;;;;;4.50;0.70;;;32.10;21.80;;;;;;6252370;28;20060;-83
2021/05/20 12:56:43;;;;;;;1.95;0.60;;;32.10;21.70;;;;;;6280131;28;20040;-85
2021/05/20 12:59:44;;;;;;;0.60;0.30;;;32.30;21.70;;;;;;6270313;28;20043;-83
2021/05/20 13:02:45;;;;;;;0.40;0.40;;;32.60;21.70;;;;;;6252180;28;20449;-85
2021/05/20 13:05:52;;;;;;;0.40;0.40;;;33.20;21.30;;;;;;6247953;28;20037;-83
2021/05/20 13:09:03;;;;;;;1.20;0.70;;;33.70;20.80;;;;;;6257903;28;20182;-83
2021/05/20 13:12:09;;;;;;;4.03;0.50;;;34.30;20.40;;;;;;6280086;28;20267;-83
2021/05/20 13:15:16;;;;;;;0.32;0.32;;;35.00;19.60;;;;;;6282318;28;20052;-82
2021/05/20 13:19:25;;;;;;;1.20;0.52;;;35.70;19.20;;;;;;6269968;28;20036;-83
2021/05/20 13:25:08;;;;;;;4.35;1.10;;;37.10;17.80;;;;;;6272795;28;20037;-84
2021/05/20 13:28:09;;;;;;;0.52;0.52;;;37.60;17.60;;;;;;6294418;28;20055;-84
2021/05/20 13:31:11;;;;;;;1.85;0.68;;;38.00;17.50;;;;;;6276175;28;20051;-84
2021/05/20 13:34:14;;;;;;;5.68;0.50;;;38.70;17.20;;;;;;6235806;28;20089;-84
2021/05/20 13:37:15;;;;;;;0.50;0.47;;;39.20;16.70;;;;;;6269205;28;20036;-84
2021/05/20 13:40:25;;;;;;;1.55;0.60;;;39.50;16.40;;;;;;6247686;28;20442;-83
2021/05/20 13:43:31;;;;;;;1.00;0.57;;;40.00;16.10;;;;;;6293090;28;20128;-82
2021/05/20 13:46:32;;;;;;;0.55;0.40;;;40.40;15.90;;;;;;6298487;28;20048;-83
2021/05/20 13:49:36;;;;;;;1.02;0.60;;;40.70;15.60;;;;;;6268305;28;20036;-84
2021/05/20 13:52:39;;;;;;;0.30;0.30;;;41.20;15.20;;;;;;6267139;28;20055;-83
2021/05/20 13:55:41;;;;;;;0.60;0.40;;;41.60;15.30;;;;;;6281743;28;20076;-83
2021/05/20 13:58:42;;;;;;;1.20;0.40;;;42.00;15.10;;;;;;6282387;28;20025;-82
2021/05/20 14:01:48;;;;;;;1.00;0.40;;;42.30;14.70;;;;;;6299670;28;20033;-83
2021/05/20 14:04:49;;;;;;;1.02;0.40;;;42.40;14.50;;;;;;6299749;28;20048;-83
2021/05/20 14:07:50;;;;;;;0.80;0.38;;;42.40;14.50;;;;;;6290158;28;20073;-83
2021/05/20 14:10:53;;;;;;;0.50;0.50;;;42.40;14.40;;;;;;6283406;28;20327;-84
2021/05/20 14:13:54;;;;;;;0.50;0.50;;;42.50;14.40;;;;;;6266252;28;20028;-82
2021/05/20 14:16:55;;;;;;;0.88;0.50;;;42.70;14.20;;;;;;6284442;28;20426;-82
2021/05/20 14:20:02;;;;;;;0.45;0.40;;;42.70;14.20;;;;;;6266973;28;20230;-83
2021/05/20 14:23:03;;;;;;;;;;;42.40;14.20;;;;;;6289057;28;20497;-84
2021/05/20 14:26:05;;;;;;;0.30;0.30;;;42.20;14.20;;;;;;6272496;28;19992;-83
2021/05/20 14:29:06;;;;;;;2.10;0.57;;;42.40;14.10;;;;;;6266009;28;20051;-83
2021/05/20 14:32:07;;;;;;;3.03;0.60;;;42.40;14.10;;;;;;6280586;28;20029;-83
2021/05/20 14:35:09;;;;;;;3.45;0.50;;;42.40;14.10;;;;;;6270808;28;20064;-82
2021/05/20 14:38:11;;;;;;;0.55;0.30;;;42.00;14.10;;;;;;6280017;28;20040;-83
2021/05/20 14:41:12;;;;;;;0.55;0.40;;;41.70;14.50;;;;;;6283243;28;20085;-84
2021/05/20 14:44:14;;;;;;;1.92;0.50;;;41.60;14.50;;;;;;6281505;28;20060;-83
2021/05/20 14:47:15;;;;;;;0.93;0.40;;;41.30;14.40;;;;;;6263658;28;20127;-82
2021/05/20 14:50:23;;;;;;;0.70;0.50;;;41.10;14.40;;;;;;6280828;28;20037;-83
2021/05/20 14:53:27;;;;;;;3.58;0.70;;;40.90;14.70;;;;;;6264204;28;20037;-84
2021/05/20 14:56:55;;;;;;;3.80;0.75;;;40.60;14.80;;;;;;6256698;28;20041;-83
2021/05/20 15:06:56;;;;;;;1.10;0.70;;;35.60;17.70;;;;;;6223783;28;20060;-82
2021/05/20 15:10:20;;;;;;;0.63;0.55;;;34.20;18.70;;;;;;6244105;28;20029;-83
2021/05/20 15:13:59;;;;;;;0.35;0.35;;;33.10;19.40;;;;;;6242828;28;20095;-81
2021/05/20 15:17:00;;;;;;;0.85;0.43;;;32.40;20.00;;;;;;6211811;28;20110;-82
2021/05/20 15:20:04;;;;;;;0.52;0.50;;;32.70;19.90;;;;;;6243697;28;20037;-83
2021/05/20 15:23:05;;;;;;;1.02;0.40;;;33.50;19.20;;;;;;6229225;28;20459;-83
2021/05/20 15:26:06;;;;;;;3.20;0.70;;;34.40;18.60;;;;;;6223166;28;20062;-81
2021/05/20 15:29:08;;;;;;;0.40;0.40;;;34.90;18.30;;;;;;6206115;28;20025;-83
2021/05/20 15:32:09;;;;;;;0.60;0.40;;;35.20;18.10;;;;;;6278590;28;20044;-83
2021/05/20 15:35:12;;;;;;;1.23;0.85;;;35.30;17.90;;;;;;6305289;28;20039;-83
2021/05/20 15:38:13;;;;;;;0.50;0.50;;;35.10;18.10;;;;;;6270340;28;20162;-83
2021/05/20 15:41:14;;;;;;;0.70;0.47;;;35.10;18.10;;;;;;6278313;28;20032;-83
2021/05/20 15:44:17;;;;;;;0.30;0.30;;;35.40;18.10;;;;;;6277782;28;20033;-84
2021/05/20 15:50:39;;;;;;;2.17;0.40;;;35.30;18.10;;;;;;6272290;28;20074;-84
2021/05/20 15:53:40;;;;;;;0.77;0.70;;;35.50;18.00;;;;;;6252049;28;20044;-83
2021/05/20 15:56:41;;;;;;;0.50;0.50;;;35.60;18.00;;;;;;6252127;28;20056;-83
2021/05/20 15:59:43;;;;;;;3.20;0.50;;;35.60;18.00;;;;;;6264732;28;20040;-83
2021/05/20 16:02:44;;;;;;;3.25;0.63;;;35.60;17.90;;;;;;6290253;28;20362;-83
2021/05/20 16:05:45;;;;;;;0.47;0.47;;;35.70;18.00;;;;;;6269223;28;20040;-83
2021/05/20 16:08:56;;;;;;;0.80;0.60;;;35.90;18.00;;;;;;6252082;28;20085;-81
2021/05/20 16:15:10;;;;;;;5.25;0.60;;;36.40;17.80;;;;;;6249814;28;20064;-82
2021/05/20 16:18:11;;;;;;;1.05;0.50;;;36.60;17.50;;;;;;6279265;28;20055;-82
2021/05/20 16:21:12;;;;;;;0.80;0.50;;;36.70;17.40;;;;;;6250110;28;20036;-83